FNF215 ENBO-ENTC

Flight info

Callsign FNF215
Flight time 0h 46m
Altitude 41000
Route PENNO DCT ATWEG
Aircraft LJ35/M-SGHRWXY/SB1

Departure

Time 2026-04-28 17:22
Airport Bodø Airport (ENBO)

Arrival

Time 2026-04-28 18:08
Airport Tromsø Airport (ENTC)
Time Latitude Longitude Altitude Speed Heading
2026-04-28 17:22 67.44754 14.40860 21838 ft 377 kts 50°
2026-04-28 17:22 67.46467 14.46131 23045 ft 385 kts 50°
2026-04-28 17:22 67.48209 14.51507 24180 ft 392 kts 50°
2026-04-28 17:23 67.51764 14.62655 26231 ft 406 kts 50°
2026-04-28 17:23 67.53587 14.68367 27154 ft 412 kts 50°
2026-04-28 17:23 67.55436 14.74174 28017 ft 418 kts 50°
2026-04-28 17:23 67.57309 14.80085 28813 ft 424 kts 50°
2026-04-28 17:24 67.58549 14.84062 29304 ft 428 kts 52°
2026-04-28 17:24 67.60926 14.92411 30222 ft 434 kts 53°
2026-04-28 17:24 67.62148 14.96716 30660 ft 438 kts 53°
2026-04-28 17:24 67.64579 15.05251 31461 ft 443 kts 53°
2026-04-28 17:25 67.66430 15.11780 32019 ft 448 kts 53°
2026-04-28 17:25 67.70169 15.25069 33015 ft 455 kts 53°
2026-04-28 17:25 67.71444 15.29608 33312 ft 458 kts 53°
2026-04-28 17:26 67.73339 15.36374 33708 ft 461 kts 53°
2026-04-28 17:26 67.75245 15.43210 34056 ft 463 kts 53°
2026-04-28 17:26 67.77158 15.50090 34347 ft 466 kts 54°
2026-04-28 17:26 67.79077 15.57012 34589 ft 468 kts 54°
2026-04-28 17:27 67.80999 15.63966 34778 ft 470 kts 54°
2026-04-28 17:27 67.82900 15.70867 34920 ft 471 kts 54°
2026-04-28 17:27 67.84832 15.77903 35024 ft 472 kts 54°
2026-04-28 17:28 67.88692 15.92026 35138 ft 473 kts 54°
2026-04-28 17:28 67.95133 16.11747 35183 ft 474 kts 37°
2026-04-28 17:29 68.00798 16.20679 35200 ft 474 kts 28°
2026-04-28 17:30 68.09468 16.33381 35218 ft 474 kts 28°
2026-04-28 17:30 68.15025 16.41568 35216 ft 442 kts 28°
2026-04-28 17:30 68.17729 16.45577 35669 ft 444 kts 29°
2026-04-28 17:31 68.20446 16.49615 36105 ft 447 kts 29°
2026-04-28 17:31 68.25930 16.57791 36786 ft 454 kts 29°
2026-04-28 17:32 68.31485 16.66121 37342 ft 459 kts 29°
2026-04-28 17:32 68.34287 16.70342 37572 ft 462 kts 29°
2026-04-28 17:32 68.37093 16.74580 37763 ft 461 kts 29°
2026-04-28 17:32 68.39811 16.78699 37758 ft 434 kts 29°
2026-04-28 17:33 68.42390 16.82616 37738 ft 423 kts 29°
2026-04-28 17:33 68.44937 16.86492 38149 ft 425 kts 29°
2026-04-28 17:33 68.47523 16.90439 38557 ft 429 kts 29°
2026-04-28 17:33 68.49284 16.93133 38801 ft 431 kts 29°
2026-04-28 17:34 68.52764 16.98475 39268 ft 435 kts 29°
2026-04-28 17:34 68.55412 17.02550 39611 ft 438 kts 29°
2026-04-28 17:34 68.58081 17.06668 39934 ft 441 kts 29°
2026-04-28 17:34 68.60762 17.10818 40245 ft 444 kts 29°
2026-04-28 17:35 68.63462 17.15007 40536 ft 447 kts 29°
2026-04-28 17:35 68.66176 17.19231 40807 ft 450 kts 29°
2026-04-28 17:35 68.68905 17.23489 40994 ft 454 kts 30°
2026-04-28 17:35 68.71681 17.27833 40996 ft 461 kts 30°
2026-04-28 17:36 68.77310 17.36683 41005 ft 469 kts 30°
2026-04-28 17:36 68.82908 17.45533 39706 ft 457 kts 30°
2026-04-28 17:37 68.85655 17.49896 38554 ft 451 kts 30°
2026-04-28 17:37 68.88339 17.54170 37570 ft 440 kts 30°
2026-04-28 17:37 68.90962 17.58360 36572 ft 431 kts 30°
2026-04-28 17:37 68.93532 17.62476 35591 ft 422 kts 30°
2026-04-28 17:38 68.96050 17.66519 34577 ft 414 kts 30°
2026-04-28 17:38 68.98526 17.70506 33570 ft 408 kts 30°
2026-04-28 17:38 69.00958 17.74431 32579 ft 401 kts 30°
2026-04-28 17:38 69.03350 17.78305 31603 ft 394 kts 30°
2026-04-28 17:39 69.05703 17.82122 30636 ft 388 kts 30°
2026-04-28 17:39 69.07913 17.86326 29662 ft 382 kts 42°
2026-04-28 17:39 69.10324 17.98986 27770 ft 370 kts 82°
2026-04-28 17:40 69.10255 18.06087 26841 ft 363 kts 101°
2026-04-28 17:40 69.09410 18.12663 25919 ft 357 kts 119°
2026-04-28 17:40 69.07906 18.18083 25001 ft 351 kts 137°
2026-04-28 17:40 69.05944 18.21850 24116 ft 345 kts 155°
2026-04-28 17:41 69.03677 18.23793 23220 ft 339 kts 172°
2026-04-28 17:41 69.01343 18.23767 22342 ft 334 kts 189°
2026-04-28 17:41 68.99149 18.21868 21467 ft 329 kts 206°
2026-04-28 17:41 68.97174 18.18767 20608 ft 324 kts 210°
2026-04-28 17:42 68.95242 18.15606 19753 ft 320 kts 210°
2026-04-28 17:42 68.93947 18.13513 19191 ft 317 kts 210°
2026-04-28 17:42 68.91437 18.09521 18087 ft 311 kts 210°
2026-04-28 17:42 68.89569 18.06550 17268 ft 307 kts 210°
2026-04-28 17:43 68.87726 18.03610 16451 ft 303 kts 210°
2026-04-28 17:43 68.85907 18.00720 15650 ft 300 kts 210°
2026-04-28 17:43 68.84107 17.97866 14853 ft 296 kts 210°
2026-04-28 17:43 68.82331 17.95056 14068 ft 292 kts 210°
2026-04-28 17:44 68.80603 17.92174 13272 ft 289 kts 217°
2026-04-28 17:44 68.79219 17.88216 12502 ft 285 kts 232°
2026-04-28 17:44 68.78238 17.83501 11754 ft 282 kts 247°
2026-04-28 17:44 68.77716 17.78318 11023 ft 280 kts 261°
2026-04-28 17:45 68.77669 17.72989 10298 ft 277 kts 275°
2026-04-28 17:45 68.78087 17.67838 9582 ft 275 kts 289°
2026-04-28 17:45 68.78934 17.63157 8876 ft 273 kts 303°
2026-04-28 17:45 68.80164 17.59178 8398 ft 271 kts 316°
2026-04-28 17:46 68.81697 17.56148 7961 ft 273 kts 331°
2026-04-28 17:46 68.83440 17.54201 7780 ft 270 kts 344°
2026-04-28 17:46 68.85295 17.53469 7549 ft 270 kts 358°
2026-04-28 17:46 68.87168 17.53999 7433 ft 271 kts 12°
2026-04-28 17:47 68.88934 17.55729 7373 ft 269 kts 26°
2026-04-28 17:47 68.90568 17.58284 7254 ft 269 kts 28°
2026-04-28 17:47 68.92285 17.60347 7152 ft 269 kts 18°
2026-04-28 17:47 68.93481 17.61206 7089 ft 268 kts 11°
2026-04-28 17:48 68.95963 17.61677 6968 ft 267 kts 356°
2026-04-28 17:48 68.97811 17.61186 6873 ft 267 kts 353°
2026-04-28 17:48 68.99656 17.60616 6800 ft 267 kts 353°
2026-04-28 17:48 69.01501 17.60126 6714 ft 266 kts 354°
2026-04-28 17:49 69.03348 17.59756 6640 ft 266 kts 356°
2026-04-28 17:49 69.05172 17.59521 6555 ft 266 kts 358°
2026-04-28 17:49 69.07046 17.59418 6466 ft 266 kts 359°
2026-04-28 17:49 69.08866 17.59460 6383 ft 265 kts
2026-04-28 17:50 69.10701 17.59898 6280 ft 266 kts 13°
2026-04-28 17:50 69.12368 17.62102 6198 ft 265 kts 32°
2026-04-28 17:50 69.13932 17.64849 6117 ft 265 kts 30°
2026-04-28 17:50 69.15564 17.67220 6039 ft 265 kts 25°
2026-04-28 17:51 69.17244 17.69318 6007 ft 263 kts 24°
2026-04-28 17:51 69.18895 17.71458 6003 ft 260 kts 25°
2026-04-28 17:51 69.20519 17.73656 6003 ft 258 kts 25°
2026-04-28 17:51 69.22132 17.75836 5999 ft 256 kts 25°
2026-04-28 17:52 69.23739 17.77989 5999 ft 255 kts 25°
2026-04-28 17:52 69.25342 17.80138 5996 ft 255 kts 25°
2026-04-28 17:52 69.28530 17.84435 5991 ft 253 kts 25°
2026-04-28 17:53 69.30118 17.86578 5990 ft 253 kts 25°
2026-04-28 17:53 69.31702 17.88722 5991 ft 252 kts 25°
2026-04-28 17:53 69.33286 17.90866 5992 ft 252 kts 25°
2026-04-28 17:53 69.34866 17.93010 5991 ft 252 kts 25°
2026-04-28 17:54 69.36443 17.95156 5990 ft 252 kts 25°
2026-04-28 17:54 69.38022 17.97306 5993 ft 251 kts 25°
2026-04-28 17:54 69.39597 17.99454 5990 ft 251 kts 25°
2026-04-28 17:54 69.41165 18.01651 5992 ft 251 kts 26°
2026-04-28 17:55 69.42731 18.03864 5992 ft 251 kts 26°
2026-04-28 17:55 69.44300 18.06066 5991 ft 251 kts 26°
2026-04-28 17:55 69.45869 18.08264 5991 ft 251 kts 26°
2026-04-28 17:55 69.47433 18.10471 5991 ft 251 kts 26°
2026-04-28 17:56 69.49000 18.12674 5991 ft 251 kts 26°
2026-04-28 17:56 69.50569 18.14888 5970 ft 252 kts 26°
2026-04-28 17:56 69.52153 18.17130 5846 ft 257 kts 26°
2026-04-28 17:56 69.53764 18.19414 5725 ft 260 kts 26°
2026-04-28 17:57 69.55394 18.21726 5618 ft 262 kts 26°
2026-04-28 17:57 69.57023 18.24044 5610 ft 260 kts 26°
2026-04-28 17:57 69.58640 18.26344 5610 ft 258 kts 26°
2026-04-28 17:57 69.60220 18.28595 5609 ft 256 kts 26°
2026-04-28 17:58 69.61811 18.30871 5608 ft 255 kts 26°
2026-04-28 17:58 69.63393 18.33136 5608 ft 254 kts 26°
2026-04-28 17:58 69.64986 18.35419 5539 ft 254 kts 26°
2026-04-28 17:58 69.66569 18.37695 5377 ft 255 kts 26°
2026-04-28 17:59 69.68150 18.39970 5256 ft 254 kts 26°
2026-04-28 17:59 69.69729 18.42245 5126 ft 254 kts 26°
2026-04-28 17:59 69.71305 18.44519 4994 ft 253 kts 26°
2026-04-28 17:59 69.72877 18.46792 4867 ft 252 kts 26°
2026-04-28 18:00 69.74446 18.49066 4739 ft 252 kts 26°
2026-04-28 18:00 69.76012 18.51330 4626 ft 252 kts 26°
2026-04-28 18:00 69.77569 18.53595 4605 ft 248 kts 26°
2026-04-28 18:00 69.79097 18.55826 4606 ft 245 kts 26°
2026-04-28 18:01 69.80610 18.58026 4598 ft 242 kts 26°
2026-04-28 18:01 69.82102 18.60202 4593 ft 239 kts 26°
2026-04-28 18:01 69.83581 18.62366 4594 ft 237 kts 26°
2026-04-28 18:01 69.85047 18.64519 4591 ft 235 kts 27°
2026-04-28 18:02 69.86368 18.67293 4593 ft 236 kts 46°
2026-04-28 18:02 69.87304 18.71170 4593 ft 234 kts 64°
2026-04-28 18:02 69.87765 18.75671 4592 ft 233 kts 83°
2026-04-28 18:02 69.87714 18.80336 4593 ft 231 kts 102°
2026-04-28 18:03 69.87175 18.84639 4591 ft 230 kts 120°
2026-04-28 18:03 69.86181 18.88309 4593 ft 228 kts 138°
2026-04-28 18:03 69.84884 18.90822 4592 ft 227 kts 156°
2026-04-28 18:03 69.83389 18.92266 4547 ft 228 kts 164°
2026-04-28 18:04 69.81878 18.93599 4512 ft 226 kts 163°
2026-04-28 18:04 69.80375 18.94937 4446 ft 226 kts 163°
2026-04-28 18:04 69.78873 18.96260 4366 ft 225 kts 163°
2026-04-28 18:04 69.77372 18.97334 3994 ft 223 kts 175°
2026-04-28 18:05 69.75823 18.97020 3439 ft 228 kts 189°
2026-04-28 18:05 69.74773 18.96452 2919 ft 234 kts 193°
2026-04-28 18:05 69.72609 18.94836 1692 ft 244 kts 190°
2026-04-28 18:05 69.70934 18.93718 919 ft 246 kts 198°
2026-04-28 18:06 69.69344 18.92370 536 ft 232 kts 196°
2026-04-28 18:06 69.67848 18.91187 362 ft 214 kts 195°
2026-04-28 18:06 69.66608 18.89608 665 ft 176 kts 233°
2026-04-28 18:06 69.66580 18.86332 796 ft 187 kts 309°
2026-04-28 18:07 69.67809 18.85425 782 ft 202 kts 14°
2026-04-28 18:07 69.69208 18.86724 727 ft 213 kts 19°
2026-04-28 18:07 69.70469 18.88637 836 ft 199 kts 35°
2026-04-28 18:07 69.71115 18.91550 841 ft 166 kts 111°
2026-04-28 18:08 69.70100 18.92855 290 ft 166 kts 182°
2026-04-28 18:08 69.69030 18.92333 35 ft 146 kts 193°
2026-04-28 18:08 69.68218 18.91806 26 ft 81 kts 192°
2026-04-28 18:08 69.67847 18.91564 34 ft 25 kts 192°
2026-04-28 18:09 69.67712 18.91411 34 ft 13 kts 279°
2026-04-28 18:09 69.67737 18.91124 29 ft 18 kts 225°
2026-04-28 18:09 69.67648 18.90886 29 ft 6 kts 228°
2026-04-28 18:09 69.67645 18.90876 29 ft 0 kts 228°